createdAt,value
2018-09-02T00:02:04.262Z,5.70
2018-09-02T00:05:08.488Z,3.90
2018-09-02T00:08:12.615Z,5.87
2018-09-02T00:11:16.744Z,6.00
2018-09-02T00:14:20.882Z,4.43
2018-09-02T00:17:24.972Z,7.83
2018-09-02T00:20:29.203Z,5.90
2018-09-02T00:23:33.380Z,4.30
2018-09-02T00:26:37.586Z,6.57
2018-09-02T00:29:41.718Z,4.60
2018-09-02T00:32:45.851Z,5.20
2018-09-02T00:35:50.002Z,10.97
2018-09-02T00:38:54.157Z,13.80
2018-09-02T00:41:58.308Z,6.27
2018-09-02T00:45:02.418Z,7.67
2018-09-02T00:48:06.594Z,7.07
2018-09-02T00:51:10.873Z,9.83
2018-09-02T00:54:14.999Z,8.63
2018-09-02T00:57:19.178Z,7.33
2018-09-02T01:00:23.392Z,7.00
2018-09-02T01:03:27.518Z,7.30
2018-09-02T01:06:31.850Z,5.13
2018-09-02T01:09:35.976Z,8.83
2018-09-02T01:12:40.257Z,5.67
2018-09-02T01:15:44.693Z,5.60
2018-09-02T01:18:48.935Z,4.93
2018-09-02T01:21:53.110Z,5.00
2018-09-02T01:24:57.264Z,5.13
2018-09-02T01:28:01.406Z,4.83
2018-09-02T01:31:06.060Z,7.10
2018-09-02T01:34:10.197Z,11.27
2018-09-02T01:37:14.276Z,6.53
2018-09-02T01:40:18.399Z,8.10
2018-09-02T01:43:22.589Z,7.40
2018-09-02T01:46:26.739Z,5.90
2018-09-02T01:49:31.441Z,5.20
2018-09-02T01:52:35.585Z,6.57
2018-09-02T01:55:39.690Z,6.03
2018-09-02T01:58:43.877Z,6.03
2018-09-02T02:01:47.994Z,4.97
2018-09-02T02:04:52.149Z,5.23
2018-09-02T02:07:56.314Z,6.07
2018-09-02T02:11:00.527Z,5.10
2018-09-02T02:14:04.765Z,5.50
2018-09-02T02:17:09.731Z,6.70
2018-09-02T02:20:13.892Z,3.73
2018-09-02T02:23:18.044Z,7.00
2018-09-02T02:26:22.170Z,5.67
2018-09-02T02:29:26.338Z,4.83
2018-09-02T02:32:30.700Z,5.83
2018-09-02T02:35:34.816Z,5.03
2018-09-02T02:38:38.970Z,8.33
2018-09-02T02:41:43.596Z,7.23
2018-09-02T02:44:47.743Z,4.87
2018-09-02T02:47:51.852Z,5.23
2018-09-02T02:50:56.107Z,5.50
2018-09-02T02:54:00.192Z,4.60
2018-09-02T02:57:04.386Z,5.57
2018-09-02T03:00:09.205Z,5.70
2018-09-02T03:03:13.300Z,5.73
2018-09-02T03:06:17.442Z,5.73
2018-09-02T03:09:21.615Z,5.43
2018-09-02T03:12:25.755Z,6.77
2018-09-02T03:15:30.071Z,6.77
2018-09-02T03:18:40.291Z,5.87
2018-09-02T03:21:45.226Z,4.80
2018-09-02T03:24:49.425Z,4.40
2018-09-02T03:27:53.567Z,5.63
2018-09-02T03:30:57.684Z,4.40
2018-09-02T03:34:01.869Z,5.43
2018-09-02T03:37:06.453Z,3.67
2018-09-02T03:40:10.650Z,4.63
2018-09-02T03:43:15.134Z,5.67
2018-09-02T03:46:19.266Z,6.93
2018-09-02T03:49:23.423Z,7.20
2018-09-02T03:52:27.581Z,5.67
2018-09-02T03:55:31.697Z,5.40
2018-09-02T03:58:35.978Z,4.53
2018-09-02T04:01:40.121Z,5.07
2018-09-02T04:04:44.338Z,7.97
2018-09-02T04:07:48.484Z,6.13
2018-09-02T04:10:52.583Z,7.73
2018-09-02T04:13:56.713Z,4.77
2018-09-02T04:17:00.907Z,5.23
2018-09-02T04:20:05.968Z,5.77
2018-09-02T04:23:10.175Z,7.67
2018-09-02T04:26:14.290Z,6.37
2018-09-02T04:29:18.425Z,5.07
2018-09-02T04:32:22.524Z,6.87
2018-09-02T04:35:26.841Z,7.03
2018-09-02T04:38:31.002Z,6.17
2018-09-02T04:41:35.261Z,6.27
2018-09-02T04:44:39.897Z,7.37
2018-09-02T04:47:43.985Z,6.63
2018-09-02T04:50:48.124Z,6.83
2018-09-02T04:53:52.315Z,9.90
2018-09-02T04:56:56.425Z,4.37
2018-09-02T05:00:00.546Z,6.87
2018-09-02T05:03:04.664Z,4.97
2018-09-02T05:06:08.754Z,6.10
2018-09-02T05:09:12.870Z,6.43
2018-09-02T05:12:17.008Z,6.87
2018-09-02T05:15:21.131Z,5.07
2018-09-02T05:18:25.287Z,7.20
2018-09-02T05:21:29.405Z,5.70
2018-09-02T05:24:33.643Z,6.83
2018-09-02T05:27:37.834Z,7.57
2018-09-02T05:30:42.038Z,6.07
2018-09-02T05:33:46.128Z,6.67
2018-09-02T05:36:50.422Z,4.77
2018-09-02T05:39:54.656Z,9.67
2018-09-02T05:42:59.232Z,5.10
2018-09-02T05:46:03.426Z,7.03
2018-09-02T05:49:07.555Z,5.47
2018-09-02T05:52:11.729Z,5.87
2018-09-02T05:55:15.856Z,5.77
2018-09-02T05:58:20.011Z,6.27
2018-09-02T06:01:24.151Z,5.73
2018-09-02T06:04:28.309Z,4.40
2018-09-02T06:07:32.701Z,8.33
2018-09-02T06:10:36.987Z,5.57
2018-09-02T06:13:41.150Z,6.77
2018-09-02T06:16:45.783Z,9.27
2018-09-02T06:19:50.036Z,5.80
2018-09-02T06:22:54.190Z,8.03
2018-09-02T06:25:58.295Z,5.93
2018-09-02T06:29:02.423Z,6.37
2018-09-02T06:32:07.131Z,7.70
2018-09-02T06:35:11.248Z,7.03
2018-09-02T06:38:15.360Z,7.77
2018-09-02T06:41:20.257Z,8.47
2018-09-02T06:44:24.397Z,7.07
2018-09-02T06:47:28.495Z,8.17
2018-09-02T06:50:32.652Z,6.67
2018-09-02T06:53:36.760Z,5.90
2018-09-02T06:56:40.901Z,7.03
2018-09-02T06:59:45.036Z,8.57
2018-09-02T07:02:49.725Z,7.33
2018-09-02T07:05:53.815Z,7.00
2018-09-02T07:08:58.163Z,10.63
2018-09-02T07:12:02.257Z,8.37
2018-09-02T07:15:06.405Z,8.77
2018-09-02T07:18:10.565Z,8.60
2018-09-02T07:21:14.687Z,11.33
2018-09-02T07:24:19.790Z,9.90
2018-09-02T07:27:23.904Z,12.00
2018-09-02T07:30:28.049Z,8.83
2018-09-02T07:33:32.186Z,7.53
2018-09-02T07:36:36.382Z,9.30
2018-09-02T07:39:40.852Z,8.97
2018-09-02T07:42:44.999Z,7.17
2018-09-02T07:45:49.126Z,12.30
2018-09-02T07:48:53.298Z,8.13
2018-09-02T07:51:57.410Z,7.27
2018-09-02T07:55:01.567Z,7.53
2018-09-02T07:58:05.668Z,6.60
2018-09-02T08:01:09.828Z,6.07
2018-09-02T08:04:13.963Z,4.67
2018-09-02T08:07:18.117Z,5.03
2018-09-02T08:10:22.724Z,8.20
2018-09-02T08:13:26.933Z,4.37
2018-09-02T08:16:31.082Z,12.23
2018-09-02T08:19:35.342Z,5.00
2018-09-02T08:22:39.559Z,5.03
2018-09-02T08:25:43.939Z,4.20
2018-09-02T08:28:49.258Z,4.63
2018-09-02T08:31:53.423Z,8.23
2018-09-02T08:34:57.650Z,3.37
2018-09-02T08:38:01.789Z,5.10
2018-09-02T08:41:06.008Z,4.47
2018-09-02T08:44:10.554Z,5.60
2018-09-02T08:47:14.681Z,5.57
2018-09-02T08:50:19.046Z,3.63
2018-09-02T08:53:23.209Z,4.23
2018-09-02T08:56:27.468Z,5.33
2018-09-02T08:59:31.597Z,4.73
2018-09-02T09:02:36.591Z,3.90
2018-09-02T09:05:40.783Z,6.30
2018-09-02T09:08:45.247Z,3.33
2018-09-02T09:11:48.998Z,4.97
2018-09-02T09:14:53.122Z,3.97
2018-09-02T09:17:57.232Z,3.23
2018-09-02T09:21:01.493Z,3.17
2018-09-02T09:24:05.922Z,5.63
2018-09-02T09:27:09.994Z,3.13
2018-09-02T09:30:14.299Z,4.80
2018-09-02T09:33:18.487Z,5.73
2018-09-02T09:36:22.719Z,4.33
2018-09-02T09:39:26.836Z,3.43
2018-09-02T09:42:31.757Z,3.77
2018-09-02T09:45:36.079Z,3.63
2018-09-02T09:48:40.314Z,3.83
2018-09-02T09:51:44.492Z,3.17
2018-09-02T09:54:48.669Z,2.77
2018-09-02T09:57:52.798Z,4.23
2018-09-02T10:00:56.910Z,3.13
2018-09-02T10:04:01.127Z,3.10
2018-09-02T10:07:06.212Z,2.57
2018-09-02T10:10:10.348Z,3.87
2018-09-02T10:13:14.633Z,3.10
2018-09-02T10:16:18.782Z,2.93
2018-09-02T10:19:23.457Z,2.87
2018-09-02T10:22:27.624Z,2.93
2018-09-02T10:25:31.734Z,2.57
2018-09-02T10:28:35.888Z,3.03
2018-09-02T10:31:40.101Z,2.30
2018-09-02T10:34:44.259Z,3.60
2018-09-02T10:37:48.586Z,2.63
2018-09-02T10:40:52.780Z,3.60
2018-09-02T10:43:56.924Z,3.67
2018-09-02T10:47:01.062Z,3.53
2018-09-02T10:50:05.678Z,3.30
2018-09-02T10:53:09.843Z,3.93
2018-09-02T10:56:13.984Z,2.77
2018-09-02T10:59:18.159Z,3.47
2018-09-02T11:02:22.460Z,2.90
2018-09-02T11:05:26.590Z,3.93
2018-09-02T11:08:30.819Z,2.97
2018-09-02T11:11:35.161Z,4.60
2018-09-02T11:14:39.522Z,3.90
2018-09-02T11:17:43.745Z,5.97
2018-09-02T11:20:47.929Z,3.07
2018-09-02T11:23:52.089Z,3.77
2018-09-02T11:26:56.200Z,2.23
2018-09-02T11:30:00.370Z,3.83
2018-09-02T11:33:04.663Z,4.13
2018-09-02T11:36:08.796Z,4.73
2018-09-02T11:39:12.947Z,3.13
2018-09-02T11:42:17.146Z,2.20
2018-09-02T11:45:21.307Z,4.87
2018-09-02T11:48:25.601Z,2.20
2018-09-02T11:51:29.784Z,3.43
2018-09-02T11:54:33.988Z,4.27
2018-09-02T11:57:38.212Z,2.77
2018-09-02T12:00:42.363Z,2.87
2018-09-02T12:03:46.636Z,2.80
2018-09-02T12:06:50.713Z,2.60
2018-09-02T12:09:55.035Z,2.53
2018-09-02T12:12:59.210Z,2.70
2018-09-02T12:16:03.445Z,2.60
2018-09-02T12:19:07.585Z,2.50
2018-09-02T12:22:11.836Z,4.10
2018-09-02T12:25:15.995Z,3.37
2018-09-02T12:28:20.112Z,3.67
2018-09-02T12:31:24.351Z,3.50
2018-09-02T12:34:28.771Z,3.37
2018-09-02T12:37:33.333Z,3.93
2018-09-02T12:40:37.518Z,4.73
2018-09-02T12:43:41.748Z,3.10
2018-09-02T12:46:45.921Z,2.87
2018-09-02T12:49:50.067Z,4.20
2018-09-02T12:52:54.156Z,3.47
2018-09-02T12:55:58.344Z,3.27
2018-09-02T12:59:03.102Z,3.77
2018-09-02T13:02:07.289Z,5.57
2018-09-02T13:05:11.443Z,4.43
2018-09-02T13:08:15.591Z,3.93
2018-09-02T13:11:19.747Z,5.67
2018-09-02T13:14:23.895Z,4.60
2018-09-02T13:17:27.988Z,3.47
2018-09-02T13:20:32.195Z,3.80
2018-09-02T13:23:36.393Z,4.57
2018-09-02T13:26:40.625Z,5.43
2018-09-02T13:29:45.081Z,4.77
2018-09-02T13:32:49.214Z,4.00
2018-09-02T13:35:53.328Z,4.77
2018-09-02T13:38:57.573Z,5.83
2018-09-02T13:42:01.685Z,4.03
2018-09-02T13:45:06.653Z,3.40
2018-09-02T13:48:11.796Z,2.70
2018-09-02T13:51:15.997Z,3.03
2018-09-02T13:54:20.165Z,3.03
2018-09-02T13:57:24.314Z,3.97
2018-09-02T14:00:28.464Z,4.50
2018-09-02T14:03:39.304Z,4.00
2018-09-02T14:06:44.411Z,3.50
2018-09-02T14:09:48.570Z,3.30
2018-09-02T14:12:52.712Z,3.53
2018-09-02T14:15:56.826Z,3.67
2018-09-02T14:19:00.961Z,6.07
2018-09-02T14:22:05.091Z,6.53
2018-09-02T14:25:09.211Z,3.10
2018-09-02T14:28:13.355Z,2.77
2018-09-02T14:31:18.258Z,2.43
2018-09-02T14:34:22.607Z,2.73
2018-09-02T14:37:26.707Z,3.63
2018-09-02T14:40:30.966Z,6.60
2018-09-02T14:43:35.420Z,2.47
2018-09-02T14:46:39.797Z,3.43
2018-09-02T14:49:43.924Z,4.10
2018-09-02T14:52:49.525Z,2.90
2018-09-02T14:55:53.702Z,3.30
2018-09-02T14:58:57.832Z,4.83
2018-09-02T15:02:01.956Z,5.67
2018-09-02T15:05:06.043Z,3.10
2018-09-02T15:08:10.170Z,4.97
2018-09-02T15:11:14.438Z,6.00
2018-09-02T15:14:18.572Z,4.73
2018-09-02T15:17:22.760Z,3.77
2018-09-02T15:20:26.906Z,4.90
2018-09-02T15:23:31.194Z,4.47
2018-09-02T15:26:35.439Z,4.33
2018-09-02T15:29:39.566Z,4.23
2018-09-02T15:32:43.657Z,4.83
2018-09-02T15:35:48.022Z,6.93
2018-09-02T15:38:52.184Z,4.67
2018-09-02T15:41:56.330Z,4.60
2018-09-02T15:45:00.536Z,4.50
2018-09-02T15:48:05.072Z,4.53
2018-09-02T15:51:09.363Z,7.17
2018-09-02T15:54:13.515Z,5.67
2018-09-02T15:57:18.368Z,5.67
2018-09-02T16:00:22.625Z,4.93
2018-09-02T16:03:26.790Z,7.17
2018-09-02T16:06:31.007Z,7.37
2018-09-02T16:09:35.143Z,5.33
2018-09-02T16:12:39.322Z,4.73
2018-09-02T16:15:43.445Z,6.73
2018-09-02T16:18:47.649Z,6.90
2018-09-02T16:21:51.834Z,4.93
2018-09-02T16:24:57.503Z,6.20
2018-09-02T16:28:01.781Z,6.63
2018-09-02T16:31:06.313Z,6.03
2018-09-02T16:34:10.798Z,6.70
2018-09-02T16:37:14.926Z,6.37
2018-09-02T16:40:19.135Z,9.67
2018-09-02T16:43:23.303Z,8.67
2018-09-02T16:46:27.478Z,8.03
2018-09-02T16:49:31.710Z,5.00
2018-09-02T16:52:35.920Z,6.00
2018-09-02T16:55:40.660Z,7.20
2018-09-02T16:58:44.857Z,6.90
2018-09-02T17:01:49.010Z,6.70
2018-09-02T17:04:56.911Z,9.47
2018-09-02T17:08:01.108Z,9.53
2018-09-02T17:11:05.871Z,6.83
2018-09-02T17:14:10.693Z,5.70
2018-09-02T17:17:14.822Z,6.00
2018-09-02T17:20:51.006Z,5.50
2018-09-02T17:23:55.165Z,8.67
2018-09-02T17:26:59.391Z,6.40
2018-09-02T17:30:03.855Z,4.27
2018-09-02T17:33:09.154Z,4.97
2018-09-02T17:36:13.653Z,5.73
2018-09-02T17:39:17.781Z,8.00
2018-09-02T17:42:22.109Z,9.83
2018-09-02T17:45:26.274Z,8.37
2018-09-02T17:48:30.572Z,12.27
2018-09-02T17:51:35.316Z,7.70
2018-09-02T17:54:39.649Z,6.30
2018-09-02T17:57:43.810Z,5.40
2018-09-02T18:00:50.550Z,8.33
2018-09-02T18:03:55.129Z,10.50
2018-09-02T18:06:59.430Z,8.67
2018-09-02T18:10:03.667Z,10.87
2018-09-02T18:13:07.979Z,7.67
2018-09-02T18:16:12.293Z,8.23
2018-09-02T18:19:16.620Z,8.03
2018-09-02T18:22:20.860Z,7.77
2018-09-02T18:25:25.672Z,9.10
2018-09-02T18:28:33.239Z,8.20
2018-09-02T18:31:37.570Z,10.63
2018-09-02T18:34:41.742Z,7.00
2018-09-02T18:37:45.997Z,10.63
2018-09-02T18:40:50.093Z,8.63
2018-09-02T18:43:54.242Z,9.30
2018-09-02T18:46:58.484Z,8.00
2018-09-02T18:50:02.617Z,9.43
2018-09-02T18:53:06.834Z,9.37
2018-09-02T18:56:10.999Z,7.93
2018-09-02T18:59:15.202Z,10.83
2018-09-02T19:02:19.676Z,8.17
2018-09-02T19:05:23.823Z,8.13
2018-09-02T19:08:28.499Z,8.00
2018-09-02T19:11:32.607Z,7.17
2018-09-02T19:14:37.608Z,10.27
2018-09-02T19:17:41.979Z,10.27
2018-09-02T19:20:46.138Z,10.70
2018-09-02T19:23:50.639Z,10.07
2018-09-02T19:26:54.846Z,17.17
2018-09-02T19:29:59.029Z,15.03
2018-09-02T19:33:05.369Z,14.67
2018-09-02T19:36:09.506Z,15.07
2018-09-02T19:39:14.538Z,20.70
2018-09-02T19:42:20.306Z,19.33
2018-09-02T19:45:24.459Z,17.30
2018-09-02T19:48:28.843Z,17.20
2018-09-02T19:51:33.093Z,19.23
2018-09-02T19:54:37.253Z,16.87
2018-09-02T19:57:41.442Z,17.87
2018-09-02T20:00:45.656Z,20.00
2018-09-02T20:03:49.849Z,19.47
2018-09-02T20:06:54.431Z,23.40
2018-09-02T20:09:58.708Z,19.27
2018-09-02T20:13:03.008Z,26.77
2018-09-02T20:16:07.851Z,17.63
2018-09-02T20:19:12.273Z,23.33
2018-09-02T20:22:16.444Z,22.83
2018-09-02T20:25:20.612Z,23.00
2018-09-02T20:28:24.787Z,21.73
2018-09-02T20:31:28.991Z,24.50
2018-09-02T20:34:33.338Z,22.33
2018-09-02T20:37:37.608Z,27.70
2018-09-02T20:40:41.757Z,24.30
2018-09-02T20:43:46.051Z,21.47
2018-09-02T20:46:51.064Z,19.57
2018-09-02T20:49:55.196Z,20.87
2018-09-02T20:53:00.222Z,18.93
2018-09-02T20:56:06.331Z,21.43
2018-09-02T20:59:10.479Z,21.63
2018-09-02T21:02:14.819Z,24.37
2018-09-02T21:05:18.978Z,25.20
2018-09-02T21:08:23.634Z,23.63
2018-09-02T21:11:28.055Z,28.47
2018-09-02T21:14:32.350Z,30.37
2018-09-02T21:17:36.555Z,27.27
2018-09-02T21:20:40.779Z,28.37
2018-09-02T21:23:44.975Z,24.60
2018-09-02T21:26:49.224Z,29.93
2018-09-02T21:29:53.912Z,26.57
2018-09-02T21:32:58.065Z,25.70
2018-09-02T21:36:02.229Z,31.23
2018-09-02T21:39:08.050Z,29.87
2018-09-02T21:42:12.170Z,29.53
2018-09-02T21:45:16.408Z,25.90
2018-09-02T21:48:20.544Z,29.63
2018-09-02T21:51:24.742Z,26.03
2018-09-02T21:54:29.200Z,30.97
2018-09-02T21:57:33.466Z,33.57
2018-09-02T22:00:37.677Z,31.10
2018-09-02T22:03:41.807Z,36.37
2018-09-02T22:06:45.948Z,32.77
2018-09-02T22:09:50.131Z,33.97
2018-09-02T22:12:54.299Z,32.97
2018-09-02T22:15:58.396Z,44.17
2018-09-02T22:19:02.517Z,39.17
2018-09-02T22:22:06.998Z,44.77
2018-09-02T22:25:11.117Z,41.07
2018-09-02T22:28:15.247Z,46.40
2018-09-02T22:31:19.411Z,42.90
2018-09-02T22:34:24.615Z,43.00
2018-09-02T22:37:28.781Z,41.33
2018-09-02T22:40:32.953Z,42.70
2018-09-02T22:43:37.317Z,46.03
2018-09-02T22:46:41.639Z,41.47
2018-09-02T22:49:45.782Z,37.87
2018-09-02T22:52:49.970Z,40.43
2018-09-02T22:55:54.114Z,38.87
2018-09-02T22:58:58.607Z,35.70
2018-09-02T23:02:03.027Z,43.47
2018-09-02T23:05:07.219Z,37.53
2018-09-02T23:08:11.369Z,40.23
2018-09-02T23:11:15.506Z,40.97
2018-09-02T23:14:19.635Z,40.17
2018-09-02T23:17:23.750Z,33.10
2018-09-02T23:20:27.930Z,32.53
2018-09-02T23:23:32.126Z,33.87
2018-09-02T23:26:36.337Z,34.23
2018-09-02T23:29:40.521Z,31.13
2018-09-02T23:32:44.640Z,34.03
2018-09-02T23:35:48.856Z,29.93
2018-09-02T23:38:53.059Z,27.43
2018-09-02T23:41:57.172Z,27.97
2018-09-02T23:45:01.352Z,31.50
2018-09-02T23:48:06.095Z,28.87
2018-09-02T23:51:10.263Z,26.83
2018-09-02T23:54:14.404Z,28.00
2018-09-02T23:57:18.647Z,29.40
